createdAt,value
2022-10-13T00:00:42.742Z,179.07
2022-10-13T00:01:27.669Z,179.07
2022-10-13T00:02:12.627Z,179.07
2022-10-13T00:02:57.642Z,179.07
2022-10-13T00:03:42.521Z,179.07
2022-10-13T00:04:27.779Z,179.07
2022-10-13T00:05:13.019Z,179.07
2022-10-13T00:05:57.873Z,179.07
2022-10-13T00:06:42.925Z,179.07
2022-10-13T00:07:27.916Z,179.07
2022-10-13T00:08:13.134Z,179.07
2022-10-13T00:08:58.091Z,179.07
2022-10-13T00:09:43.366Z,179.07
2022-10-13T00:10:28.309Z,179.07
2022-10-13T00:11:12.911Z,179.07
2022-10-13T00:11:58.110Z,179.07
2022-10-13T00:12:43.370Z,179.07
2022-10-13T00:13:28.458Z,179.07
2022-10-13T00:14:13.591Z,179.07
2022-10-13T00:14:58.444Z,179.07
2022-10-13T00:15:43.699Z,179.07
2022-10-13T00:16:28.708Z,179.07
2022-10-13T00:17:13.931Z,179.07
2022-10-13T00:17:58.567Z,179.07
2022-10-13T00:18:43.618Z,179.07
2022-10-13T00:19:28.578Z,179.07
2022-10-13T00:20:13.738Z,178.36
2022-10-13T00:20:58.750Z,179.07
2022-10-13T00:21:44.165Z,179.07
2022-10-13T00:22:28.903Z,178.76
2022-10-13T00:23:14.286Z,179.07
2022-10-13T00:23:59.120Z,179.07
2022-10-13T00:24:44.069Z,179.07
2022-10-13T00:25:28.950Z,179.07
2022-10-13T00:26:14.080Z,179.07
2022-10-13T00:26:59.345Z,179.07
2022-10-13T00:27:44.404Z,179.07
2022-10-13T00:28:29.603Z,179.07
2022-10-13T00:29:14.420Z,179.07
2022-10-13T00:29:59.401Z,179.07
2022-10-13T00:30:44.626Z,179.07
2022-10-13T00:31:29.602Z,179.07
2022-10-13T00:32:14.844Z,179.07
2022-10-13T00:32:59.693Z,179.07
2022-10-13T00:33:44.957Z,179.07
2022-10-13T00:34:29.908Z,179.07
2022-10-13T00:35:14.937Z,179.07
2022-10-13T00:36:00.336Z,179.07
2022-10-13T00:36:45.181Z,179.19
2022-10-13T00:37:29.958Z,179.19
2022-10-13T00:38:15.212Z,179.19
2022-10-13T00:39:00.172Z,179.19
2022-10-13T00:39:45.438Z,179.19
2022-10-13T00:40:30.258Z,179.19
2022-10-13T00:41:15.909Z,179.07
2022-10-13T00:42:00.274Z,179.19
2022-10-13T00:42:45.068Z,179.19
2022-10-13T00:43:30.488Z,178.76
2022-10-13T00:44:15.432Z,179.19
2022-10-13T00:45:00.378Z,179.19
2022-10-13T00:45:45.959Z,179.19
2022-10-13T00:46:30.695Z,179.19
2022-10-13T00:47:15.561Z,179.19
2022-10-13T00:48:00.623Z,179.19
2022-10-13T00:48:45.569Z,179.19
2022-10-13T00:49:30.828Z,178.76
2022-10-13T00:50:16.092Z,179.19
2022-10-13T00:51:01.049Z,179.19
2022-10-13T00:51:45.997Z,179.19
2022-10-13T00:52:30.903Z,179.19
2022-10-13T00:53:16.134Z,179.19
2022-10-13T00:54:01.001Z,179.19
2022-10-13T00:54:46.436Z,179.07
2022-10-13T00:55:31.197Z,179.19
2022-10-13T00:56:16.649Z,179.19
2022-10-13T00:57:01.309Z,179.19
2022-10-13T00:57:46.661Z,179.19
2022-10-13T00:58:31.615Z,179.19
2022-10-13T00:59:16.530Z,179.19
2022-10-13T01:00:01.618Z,179.19
2022-10-13T01:00:46.605Z,179.19
2022-10-13T01:01:31.632Z,179.19
2022-10-13T01:02:17.150Z,179.19
2022-10-13T01:03:01.845Z,179.19
2022-10-13T01:03:46.905Z,179.19
2022-10-13T01:04:32.267Z,179.19
2022-10-13T01:05:17.116Z,179.19
2022-10-13T01:06:02.071Z,179.19
2022-10-13T01:06:47.131Z,179.19
2022-10-13T01:07:31.815Z,179.19
2022-10-13T01:08:17.140Z,179.19
2022-10-13T01:09:02.118Z,179.19
2022-10-13T01:09:47.270Z,178.76
2022-10-13T01:10:32.104Z,179.19
2022-10-13T01:11:17.462Z,179.19
2022-10-13T01:12:02.706Z,179.19
2022-10-13T01:12:47.493Z,179.19
2022-10-13T01:13:32.429Z,179.19
2022-10-13T01:14:17.485Z,179.19
2022-10-13T01:15:02.728Z,179.19
2022-10-13T01:15:47.600Z,179.19
2022-10-13T01:16:32.867Z,178.76
2022-10-13T01:17:17.665Z,179.19
2022-10-13T01:18:03.008Z,179.19
2022-10-13T01:18:48.052Z,179.19
2022-10-13T01:19:32.800Z,179.19
2022-10-13T01:20:18.259Z,179.19
2022-10-13T01:21:03.335Z,179.19
2022-10-13T01:21:48.373Z,179.19
2022-10-13T01:22:33.330Z,179.19
2022-10-13T01:23:18.169Z,179.19
2022-10-13T01:24:03.329Z,179.19
2022-10-13T01:24:48.493Z,179.19
2022-10-13T01:25:33.273Z,179.19
2022-10-13T01:26:18.491Z,179.19
2022-10-13T01:27:03.652Z,179.19
2022-10-13T01:27:49.135Z,179.19
2022-10-13T01:28:33.686Z,179.19
2022-10-13T01:29:18.727Z,179.19
2022-10-13T01:30:03.889Z,179.19
2022-10-13T01:30:48.739Z,179.19
2022-10-13T01:31:33.596Z,179.19
2022-10-13T01:32:19.080Z,179.19
2022-10-13T01:33:03.915Z,179.19
2022-10-13T01:33:48.885Z,179.19
2022-10-13T01:34:34.229Z,179.19
2022-10-13T01:35:19.076Z,178.92
2022-10-13T01:36:04.221Z,179.19
2022-10-13T01:36:49.181Z,179.19
2022-10-13T01:37:34.030Z,179.19
2022-10-13T01:38:19.091Z,179.19
2022-10-13T01:39:04.279Z,179.19
2022-10-13T01:39:49.327Z,179.19
2022-10-13T01:40:34.057Z,179.19
2022-10-13T01:41:19.137Z,179.19
2022-10-13T01:42:04.785Z,179.19
2022-10-13T01:42:49.279Z,179.19
2022-10-13T01:43:34.613Z,179.19
2022-10-13T01:44:19.455Z,178.92
2022-10-13T01:45:04.508Z,179.19
2022-10-13T01:45:49.583Z,179.19
2022-10-13T01:46:35.045Z,179.19
2022-10-13T01:47:19.872Z,179.19
2022-10-13T01:48:04.824Z,178.92
2022-10-13T01:48:49.681Z,179.19
2022-10-13T01:49:34.804Z,179.19
2022-10-13T01:50:20.197Z,179.19
2022-10-13T01:51:05.157Z,179.19
2022-10-13T01:51:50.109Z,178.92
2022-10-13T01:52:34.927Z,179.07
2022-10-13T01:53:20.013Z,179.07
2022-10-13T01:54:05.170Z,179.07
2022-10-13T01:54:49.922Z,178.76
2022-10-13T01:55:35.078Z,177.87
2022-10-13T01:56:19.941Z,179.07
2022-10-13T01:57:05.223Z,179.19
2022-10-13T01:57:50.863Z,178.76
2022-10-13T01:58:35.306Z,178.36
2022-10-13T01:59:20.401Z,178.36
2022-10-13T02:00:05.424Z,178.36
2022-10-13T02:00:51.194Z,178.36
2022-10-13T02:01:35.841Z,178.36
2022-10-13T02:02:21.129Z,178.13
2022-10-13T02:03:05.743Z,178.76
2022-10-13T02:03:51.007Z,178.36
2022-10-13T02:04:35.974Z,178.13
2022-10-13T02:05:20.913Z,178.13
2022-10-13T02:06:05.772Z,178.13
2022-10-13T02:06:51.263Z,177.87
2022-10-13T02:07:36.287Z,177.87
2022-10-13T02:08:21.176Z,177.57
2022-10-13T02:09:06.716Z,177.57
2022-10-13T02:09:51.257Z,177.57
2022-10-13T02:10:36.441Z,177.57
2022-10-13T02:11:21.786Z,177.24
2022-10-13T02:12:06.321Z,177.24
2022-10-13T02:12:51.582Z,177.24
2022-10-13T02:13:36.545Z,179.07
2022-10-13T02:14:21.898Z,179.31
2022-10-13T02:15:06.754Z,179.31
2022-10-13T02:15:51.803Z,179.31
2022-10-13T02:16:36.763Z,179.31
2022-10-13T02:17:21.817Z,179.31
2022-10-13T02:18:07.079Z,179.31
2022-10-13T02:18:52.257Z,178.92
2022-10-13T02:19:37.062Z,179.31
2022-10-13T02:20:21.996Z,179.31
2022-10-13T02:21:07.409Z,178.92
2022-10-13T02:21:52.292Z,179.31
2022-10-13T02:22:37.317Z,179.31
2022-10-13T02:23:22.087Z,179.31
2022-10-13T02:24:07.525Z,179.31
2022-10-13T02:24:52.481Z,179.31
2022-10-13T02:25:37.748Z,179.31
2022-10-13T02:26:22.493Z,179.31
2022-10-13T02:27:07.633Z,179.31
2022-10-13T02:27:53.326Z,179.31
2022-10-13T02:28:37.796Z,178.92
2022-10-13T02:29:22.659Z,179.31
2022-10-13T02:30:07.773Z,179.31
2022-10-13T02:30:52.742Z,179.31
2022-10-13T02:31:38.301Z,179.31
2022-10-13T02:32:22.843Z,178.92
2022-10-13T02:33:08.001Z,179.31
2022-10-13T02:33:52.752Z,179.31
2022-10-13T02:34:38.130Z,179.31
2022-10-13T02:35:23.072Z,179.31
2022-10-13T02:36:08.232Z,179.31
2022-10-13T02:36:53.181Z,179.31
2022-10-13T02:37:38.479Z,179.31
2022-10-13T02:38:23.301Z,179.31
2022-10-13T02:39:08.229Z,179.31
2022-10-13T02:39:53.017Z,179.31
2022-10-13T02:40:38.568Z,179.31
2022-10-13T02:41:23.314Z,179.31
2022-10-13T02:42:08.333Z,179.31
2022-10-13T02:42:53.221Z,179.31
2022-10-13T02:43:38.485Z,179.31
2022-10-13T02:44:23.364Z,179.31
2022-10-13T02:45:09.217Z,179.31
2022-10-13T02:45:53.656Z,179.31
2022-10-13T02:46:38.557Z,179.31
2022-10-13T02:47:24.072Z,179.31
2022-10-13T02:48:09.024Z,179.31
2022-10-13T02:48:54.090Z,179.31
2022-10-13T02:49:39.295Z,179.31
2022-10-13T02:50:24.146Z,179.31
2022-10-13T02:51:09.711Z,179.31
2022-10-13T02:51:54.382Z,179.31
2022-10-13T02:52:39.572Z,179.31
2022-10-13T02:53:24.433Z,179.31
2022-10-13T02:54:09.683Z,179.31
2022-10-13T02:54:54.795Z,179.31
2022-10-13T02:55:39.428Z,179.31
2022-10-13T02:56:24.867Z,179.31
2022-10-13T02:57:09.904Z,179.31
2022-10-13T02:57:54.793Z,179.31
2022-10-13T02:58:39.717Z,179.31
2022-10-13T02:59:24.667Z,179.31
2022-10-13T03:00:10.036Z,179.31
2022-10-13T03:00:54.576Z,179.31
2022-10-13T03:01:39.901Z,179.31
2022-10-13T03:02:24.866Z,179.31
2022-10-13T03:03:10.052Z,178.36
2022-10-13T03:03:55.006Z,176.46
2022-10-13T03:04:39.965Z,179.31
2022-10-13T03:05:24.745Z,179.31
2022-10-13T03:06:09.970Z,179.31
2022-10-13T03:06:55.234Z,179.31
2022-10-13T03:07:40.128Z,179.07
2022-10-13T03:08:25.352Z,179.31
2022-10-13T03:09:10.407Z,179.31
2022-10-13T03:09:55.518Z,179.31
2022-10-13T03:10:40.722Z,179.31
2022-10-13T03:11:25.776Z,179.31
2022-10-13T03:12:10.636Z,179.31
2022-10-13T03:12:55.523Z,179.31
2022-10-13T03:13:40.641Z,179.31
2022-10-13T03:14:26.203Z,179.07
2022-10-13T03:15:11.690Z,179.31
2022-10-13T03:15:56.117Z,179.31
2022-10-13T03:16:41.276Z,179.31
2022-10-13T03:17:26.127Z,179.31
2022-10-13T03:18:11.074Z,179.31
2022-10-13T03:18:56.053Z,179.31
2022-10-13T03:19:42.214Z,179.31
2022-10-13T03:20:26.461Z,179.31
2022-10-13T03:21:11.332Z,179.07
2022-10-13T03:21:56.670Z,179.31
2022-10-13T03:22:43.132Z,179.31
2022-10-13T03:23:26.482Z,179.31
2022-10-13T03:24:11.533Z,179.31
2022-10-13T03:24:56.792Z,179.31
2022-10-13T03:25:41.633Z,179.31
2022-10-13T03:26:26.813Z,179.31
2022-10-13T03:27:11.533Z,179.31
2022-10-13T03:27:56.943Z,179.31
2022-10-13T03:28:42.744Z,179.31
2022-10-13T03:29:27.029Z,179.31
2022-10-13T03:30:11.888Z,179.31
2022-10-13T03:30:56.841Z,179.31
2022-10-13T03:31:42.092Z,179.31
2022-10-13T03:32:27.195Z,179.31
2022-10-13T03:33:11.919Z,179.31
2022-10-13T03:33:57.145Z,179.07
2022-10-13T03:34:42.219Z,179.31
2022-10-13T03:35:27.377Z,179.31
2022-10-13T03:36:13.201Z,179.31
2022-10-13T03:36:57.704Z,179.31
2022-10-13T03:37:42.549Z,179.31
2022-10-13T03:38:28.220Z,179.31
2022-10-13T03:39:13.074Z,179.31
2022-10-13T03:39:57.730Z,179.31
2022-10-13T03:40:42.685Z,179.31
2022-10-13T03:41:27.763Z,179.31
2022-10-13T03:42:12.719Z,179.31
2022-10-13T03:42:57.746Z,179.31
2022-10-13T03:43:43.307Z,179.31
2022-10-13T03:44:28.158Z,179.31
2022-10-13T03:45:12.941Z,179.31
2022-10-13T03:45:57.961Z,179.31
2022-10-13T03:46:42.968Z,179.31
2022-10-13T03:47:28.097Z,179.31
2022-10-13T03:48:13.543Z,179.31
2022-10-13T03:48:58.492Z,179.31
2022-10-13T03:49:43.293Z,179.31
2022-10-13T03:50:28.716Z,179.31
2022-10-13T03:51:13.363Z,179.07
2022-10-13T03:51:58.421Z,179.31
2022-10-13T03:52:44.020Z,179.31
2022-10-13T03:53:28.479Z,179.31
2022-10-13T03:54:13.699Z,179.31
2022-10-13T03:54:58.689Z,179.31
2022-10-13T03:55:44.332Z,179.31
2022-10-13T03:56:29.065Z,179.31
2022-10-13T03:57:14.011Z,179.31
2022-10-13T03:57:58.951Z,179.31
2022-10-13T03:58:43.854Z,179.31
2022-10-13T03:59:31.829Z,179.31
2022-10-13T04:00:14.037Z,179.31
2022-10-13T04:00:59.386Z,179.31
2022-10-13T04:01:44.806Z,179.31
2022-10-13T04:02:29.308Z,179.31
2022-10-13T04:03:13.966Z,179.31
2022-10-13T04:03:59.425Z,179.31
2022-10-13T04:04:44.431Z,179.31
2022-10-13T04:05:29.023Z,179.31
2022-10-13T04:06:15.816Z,179.07
2022-10-13T04:06:59.746Z,179.31
2022-10-13T04:07:44.495Z,179.31
2022-10-13T04:08:29.456Z,178.92
2022-10-13T04:09:14.917Z,179.31
2022-10-13T04:09:59.457Z,179.31
2022-10-13T04:10:44.720Z,179.31
2022-10-13T04:11:29.892Z,179.31
2022-10-13T04:12:18.442Z,179.31
2022-10-13T04:12:59.891Z,179.31
2022-10-13T04:13:45.071Z,179.31
2022-10-13T04:14:30.017Z,179.31
2022-10-13T04:15:15.425Z,179.31
2022-10-13T04:15:59.625Z,179.31
2022-10-13T04:16:45.257Z,179.31
2022-10-13T04:17:30.126Z,179.31
2022-10-13T04:18:14.996Z,179.31
2022-10-13T04:19:00.017Z,179.31
2022-10-13T04:19:45.198Z,179.31
2022-10-13T04:20:30.185Z,179.31
2022-10-13T04:21:15.205Z,179.31
2022-10-13T04:22:00.335Z,179.31
2022-10-13T04:22:45.534Z,179.31
2022-10-13T04:23:30.165Z,179.31
2022-10-13T04:24:15.428Z,179.07
2022-10-13T04:25:00.712Z,179.31
2022-10-13T04:25:45.588Z,179.31
2022-10-13T04:26:31.111Z,179.07
2022-10-13T04:27:15.658Z,179.31
2022-10-13T04:28:00.819Z,179.31
2022-10-13T04:28:45.866Z,179.31
2022-10-13T04:29:31.028Z,179.31
2022-10-13T04:30:16.089Z,179.07
2022-10-13T04:31:01.005Z,179.31
2022-10-13T04:31:46.165Z,179.31
2022-10-13T04:32:31.177Z,179.31
2022-10-13T04:33:16.310Z,179.31
2022-10-13T04:34:01.369Z,179.31
2022-10-13T04:34:46.324Z,179.31
2022-10-13T04:35:31.279Z,179.31
2022-10-13T04:36:16.174Z,179.31
2022-10-13T04:37:01.292Z,179.31
2022-10-13T04:37:46.762Z,179.31
2022-10-13T04:38:32.031Z,179.49
2022-10-13T04:39:16.539Z,179.31
2022-10-13T04:40:01.615Z,179.31
2022-10-13T04:40:46.784Z,179.31
2022-10-13T04:41:32.240Z,179.31
2022-10-13T04:42:16.602Z,179.31
2022-10-13T04:43:01.841Z,179.31
2022-10-13T04:43:47.363Z,179.31
2022-10-13T04:44:31.747Z,179.31
2022-10-13T04:45:16.741Z,179.31
2022-10-13T04:46:02.727Z,179.31
2022-10-13T04:46:47.435Z,179.31
2022-10-13T04:47:36.807Z,179.31
2022-10-13T04:48:17.141Z,179.31
2022-10-13T04:49:02.445Z,179.31
2022-10-13T04:49:47.185Z,178.36
2022-10-13T04:50:32.508Z,178.36
2022-10-13T04:51:17.273Z,179.31
2022-10-13T04:52:02.689Z,179.31
2022-10-13T04:52:47.236Z,179.49
2022-10-13T04:53:32.324Z,179.49
2022-10-13T04:54:17.584Z,179.49
2022-10-13T04:55:02.848Z,179.07
2022-10-13T04:55:47.739Z,179.31
2022-10-13T04:56:32.572Z,179.31
2022-10-13T04:57:17.511Z,179.31
2022-10-13T04:58:02.715Z,179.49
2022-10-13T04:58:47.616Z,179.31
2022-10-13T04:59:32.981Z,179.31
2022-10-13T05:00:17.832Z,179.31
2022-10-13T05:01:03.317Z,177.87
2022-10-13T05:01:47.947Z,179.19
2022-10-13T05:02:33.031Z,179.31
2022-10-13T05:03:18.363Z,179.19
2022-10-13T05:04:03.326Z,179.31
2022-10-13T05:04:48.179Z,179.31
2022-10-13T05:05:33.206Z,179.31
2022-10-13T05:06:18.176Z,179.31
2022-10-13T05:07:17.465Z,179.31
2022-10-13T05:07:48.603Z,179.31
2022-10-13T05:08:33.600Z,178.92
2022-10-13T05:09:18.536Z,179.07
2022-10-13T05:10:03.875Z,177.24
2022-10-13T05:10:48.833Z,176.01
2022-10-13T05:11:34.706Z,177.24
2022-10-13T05:12:18.954Z,177.57
2022-10-13T05:13:04.493Z,179.19
2022-10-13T05:13:48.962Z,179.19
2022-10-13T05:14:34.622Z,179.31
2022-10-13T05:15:19.066Z,178.76
2022-10-13T05:16:04.227Z,178.76
2022-10-13T05:16:49.491Z,178.13
2022-10-13T05:17:35.502Z,179.07
2022-10-13T05:18:19.583Z,179.31
2022-10-13T05:19:04.436Z,179.49
2022-10-13T05:19:49.606Z,179.49
2022-10-13T05:20:34.663Z,179.49
2022-10-13T05:21:19.628Z,179.49
2022-10-13T05:22:04.776Z,179.49
2022-10-13T05:22:49.324Z,179.49
2022-10-13T05:23:34.529Z,179.49
2022-10-13T05:24:19.649Z,179.49
2022-10-13T05:25:04.802Z,179.49
2022-10-13T05:25:49.486Z,179.49
2022-10-13T05:26:34.503Z,179.49
2022-10-13T05:27:19.863Z,179.07
2022-10-13T05:28:05.125Z,179.49
2022-10-13T05:28:49.898Z,179.49
2022-10-13T05:29:34.830Z,179.49
2022-10-13T05:30:20.103Z,179.49
2022-10-13T05:31:05.510Z,179.49
2022-10-13T05:31:50.201Z,179.49
2022-10-13T05:32:35.068Z,179.07
2022-10-13T05:33:20.110Z,179.49
2022-10-13T05:34:05.172Z,179.49
2022-10-13T05:34:50.324Z,179.49
2022-10-13T05:35:35.520Z,179.49
2022-10-13T05:36:20.436Z,179.49
2022-10-13T05:37:05.497Z,179.49
2022-10-13T05:37:50.342Z,179.49
2022-10-13T05:38:35.501Z,179.49
2022-10-13T05:39:20.568Z,179.49
2022-10-13T05:40:05.719Z,179.49
2022-10-13T05:40:50.469Z,179.07
2022-10-13T05:41:35.333Z,179.49
2022-10-13T05:42:20.622Z,179.07
2022-10-13T05:43:05.741Z,179.49
2022-10-13T05:43:51.002Z,179.31
2022-10-13T05:44:35.957Z,179.31
2022-10-13T05:45:20.910Z,179.49
2022-10-13T05:46:05.763Z,179.49
2022-10-13T05:46:50.722Z,179.49
2022-10-13T05:47:36.283Z,179.49
2022-10-13T05:48:21.233Z,179.31
2022-10-13T05:49:06.302Z,179.07
2022-10-13T05:49:51.286Z,179.31
2022-10-13T05:50:36.167Z,179.31
2022-10-13T05:51:21.262Z,179.31
2022-10-13T05:52:06.413Z,179.31
2022-10-13T05:52:51.394Z,179.19
2022-10-13T05:53:36.322Z,179.31
2022-10-13T05:54:21.391Z,179.19
2022-10-13T05:55:06.441Z,179.31
2022-10-13T05:55:51.599Z,178.13
2022-10-13T05:56:36.860Z,178.13
2022-10-13T05:57:21.666Z,178.13
2022-10-13T05:58:06.544Z,177.87
2022-10-13T05:58:51.560Z,179.31
2022-10-13T05:59:36.674Z,179.31
2022-10-13T06:00:22.450Z,179.31
2022-10-13T06:01:07.196Z,179.31
2022-10-13T06:01:51.938Z,179.31
2022-10-13T06:02:36.926Z,179.31
2022-10-13T06:03:22.078Z,179.31
2022-10-13T06:04:08.031Z,179.31
2022-10-13T06:04:51.861Z,179.31
2022-10-13T06:05:37.228Z,179.31
2022-10-13T06:06:22.390Z,179.31
2022-10-13T06:07:07.235Z,179.07
2022-10-13T06:07:52.396Z,179.31
2022-10-13T06:08:37.352Z,179.31
2022-10-13T06:09:22.614Z,179.31
2022-10-13T06:10:08.084Z,179.49
2022-10-13T06:10:52.623Z,179.49
2022-10-13T06:11:37.882Z,179.49
2022-10-13T06:12:22.999Z,179.49
2022-10-13T06:13:07.649Z,179.49
2022-10-13T06:13:52.851Z,179.49
2022-10-13T06:14:37.906Z,179.07
2022-10-13T06:15:27.108Z,179.49
2022-10-13T06:16:08.233Z,179.49
2022-10-13T06:16:52.970Z,179.49
2022-10-13T06:17:38.048Z,179.49
2022-10-13T06:18:23.198Z,179.49
2022-10-13T06:19:08.298Z,179.49
2022-10-13T06:19:53.604Z,179.07
2022-10-13T06:20:38.460Z,179.49
2022-10-13T06:21:23.425Z,179.49
2022-10-13T06:22:08.369Z,179.49
2022-10-13T06:22:53.323Z,179.49
2022-10-13T06:23:38.362Z,179.07
2022-10-13T06:24:23.843Z,179.49
2022-10-13T06:25:08.592Z,179.49
2022-10-13T06:25:53.799Z,179.49
2022-10-13T06:26:38.769Z,179.07
2022-10-13T06:27:23.869Z,179.49
2022-10-13T06:28:09.028Z,179.49
2022-10-13T06:28:58.417Z,179.49
2022-10-13T06:29:39.239Z,179.49
2022-10-13T06:30:24.331Z,179.49
2022-10-13T06:31:09.362Z,179.49
2022-10-13T06:31:54.216Z,179.49
2022-10-13T06:32:39.464Z,179.49
2022-10-13T06:33:24.319Z,179.49
2022-10-13T06:34:10.299Z,179.49
2022-10-13T06:34:54.323Z,179.07
2022-10-13T06:35:39.554Z,179.49
2022-10-13T06:36:24.731Z,179.49
2022-10-13T06:37:10.031Z,179.49
2022-10-13T06:37:55.035Z,179.49
2022-10-13T06:38:39.827Z,179.07
2022-10-13T06:39:25.298Z,179.49
2022-10-13T06:40:09.821Z,179.49
2022-10-13T06:40:54.922Z,179.49
2022-10-13T06:41:39.833Z,179.49
2022-10-13T06:42:24.893Z,179.07
2022-10-13T06:43:10.251Z,179.49
2022-10-13T06:43:55.213Z,179.49
2022-10-13T06:44:40.690Z,179.49
2022-10-13T06:45:25.319Z,179.49
2022-10-13T06:46:10.188Z,179.49
2022-10-13T06:46:55.638Z,179.31
2022-10-13T06:47:40.701Z,179.31
2022-10-13T06:48:25.381Z,179.31
2022-10-13T06:49:10.707Z,179.31
2022-10-13T06:49:55.972Z,179.31
2022-10-13T06:50:42.904Z,179.31
2022-10-13T06:51:25.544Z,179.31
2022-10-13T06:52:10.928Z,179.07
2022-10-13T06:52:56.603Z,179.49
2022-10-13T06:53:40.939Z,179.31
2022-10-13T06:54:25.995Z,179.31
2022-10-13T06:55:11.370Z,179.19
2022-10-13T06:55:56.057Z,179.31
2022-10-13T06:56:40.965Z,179.31
2022-10-13T06:57:26.125Z,179.31
2022-10-13T06:58:11.282Z,179.31
2022-10-13T06:58:56.277Z,179.31
2022-10-13T06:59:41.289Z,179.31
2022-10-13T07:00:26.699Z,179.31
2022-10-13T07:01:11.833Z,179.31
2022-10-13T07:01:56.777Z,179.31
2022-10-13T07:02:41.825Z,179.31
2022-10-13T07:03:26.777Z,179.31
2022-10-13T07:04:11.839Z,179.31
2022-10-13T07:04:56.691Z,179.31
2022-10-13T07:05:41.868Z,179.31
2022-10-13T07:06:27.011Z,179.31
2022-10-13T07:07:11.961Z,179.31
2022-10-13T07:07:57.050Z,179.31
2022-10-13T07:08:42.071Z,179.31
2022-10-13T07:09:27.026Z,179.31
2022-10-13T07:10:12.187Z,179.31
2022-10-13T07:10:57.341Z,179.31
2022-10-13T07:11:42.399Z,179.31
2022-10-13T07:12:27.455Z,179.07
2022-10-13T07:13:12.558Z,179.07
2022-10-13T07:13:57.570Z,179.19
2022-10-13T07:14:43.814Z,179.31
2022-10-13T07:15:27.966Z,179.31
2022-10-13T07:16:12.844Z,179.19
2022-10-13T07:16:57.744Z,179.31
2022-10-13T07:17:44.488Z,179.31
2022-10-13T07:18:28.109Z,179.31
2022-10-13T07:19:13.475Z,179.31
2022-10-13T07:19:58.668Z,179.19
2022-10-13T07:20:43.289Z,179.19
2022-10-13T07:21:28.351Z,179.19
2022-10-13T07:22:13.093Z,179.31
2022-10-13T07:22:58.553Z,179.31
2022-10-13T07:23:43.609Z,179.31
2022-10-13T07:24:28.564Z,179.19
2022-10-13T07:25:13.515Z,179.19
2022-10-13T07:25:58.574Z,178.36
2022-10-13T07:26:43.637Z,178.36
2022-10-13T07:27:28.295Z,178.36
2022-10-13T07:28:13.774Z,178.76
2022-10-13T07:28:58.613Z,178.92
2022-10-13T07:29:43.855Z,178.92
2022-10-13T07:30:28.810Z,178.76
2022-10-13T07:31:14.069Z,178.76
2022-10-13T07:31:59.121Z,178.76
2022-10-13T07:32:43.806Z,178.92
2022-10-13T07:33:29.040Z,178.92
2022-10-13T07:34:13.801Z,178.92
2022-10-13T07:34:59.765Z,178.92
2022-10-13T07:35:44.408Z,178.92
2022-10-13T07:36:29.258Z,178.36
2022-10-13T07:37:14.313Z,177.87
2022-10-13T07:37:59.367Z,178.36
2022-10-13T07:38:44.844Z,179.07
2022-10-13T07:39:29.793Z,179.07
2022-10-13T07:40:14.646Z,179.07
2022-10-13T07:40:59.696Z,179.07
2022-10-13T07:41:47.535Z,179.19
2022-10-13T07:42:30.122Z,179.07
2022-10-13T07:43:14.996Z,179.07
2022-10-13T07:44:00.137Z,179.07
2022-10-13T07:44:44.890Z,179.07
2022-10-13T07:45:29.833Z,179.07
2022-10-13T07:46:15.196Z,179.07
2022-10-13T07:47:00.475Z,179.07
2022-10-13T07:47:45.612Z,179.19
2022-10-13T07:48:30.368Z,179.19
2022-10-13T07:49:16.375Z,179.19
2022-10-13T07:50:00.481Z,179.19
2022-10-13T07:50:46.241Z,179.07
2022-10-13T07:51:30.595Z,179.07
2022-10-13T07:52:15.651Z,179.07
2022-10-13T07:53:01.009Z,179.07
2022-10-13T07:53:45.766Z,179.07
2022-10-13T07:54:30.922Z,179.07
2022-10-13T07:55:15.867Z,179.07
2022-10-13T07:56:01.035Z,179.07
2022-10-13T07:56:45.988Z,179.07
2022-10-13T07:57:30.949Z,179.07
2022-10-13T07:58:16.229Z,179.07
2022-10-13T07:59:01.467Z,179.19
2022-10-13T07:59:46.422Z,178.76
2022-10-13T08:00:31.476Z,178.76
2022-10-13T08:01:16.355Z,178.92
2022-10-13T08:02:01.522Z,178.76
2022-10-13T08:02:46.545Z,178.76
2022-10-13T08:03:31.623Z,178.76
2022-10-13T08:04:16.864Z,178.76
2022-10-13T08:05:01.923Z,178.76
2022-10-13T08:05:46.870Z,178.36
2022-10-13T08:06:31.985Z,178.36
2022-10-13T08:07:17.261Z,178.36
2022-10-13T08:08:01.833Z,178.36
2022-10-13T08:08:46.998Z,178.36
2022-10-13T08:09:32.153Z,177.87
2022-10-13T08:10:17.216Z,178.36
2022-10-13T08:11:02.416Z,178.36
2022-10-13T08:11:47.014Z,178.76
2022-10-13T08:12:32.814Z,178.36
2022-10-13T08:13:16.919Z,178.92
2022-10-13T08:14:02.413Z,178.92
2022-10-13T08:15:32.503Z,179.19
2022-10-13T08:16:17.251Z,179.31
2022-10-13T08:17:02.757Z,179.31
2022-10-13T08:17:47.580Z,179.31
2022-10-13T08:18:32.734Z,179.31
2022-10-13T08:19:17.698Z,179.31
2022-10-13T08:20:02.700Z,179.19
2022-10-13T08:20:47.687Z,179.07
2022-10-13T08:21:57.041Z,179.07
2022-10-13T08:22:17.910Z,179.07
2022-10-13T08:23:02.984Z,178.36
2022-10-13T08:23:47.927Z,178.36
2022-10-13T08:24:33.021Z,178.36
2022-10-13T08:25:17.810Z,178.76
2022-10-13T08:26:03.013Z,178.92
2022-10-13T08:26:47.892Z,178.92
2022-10-13T08:27:49.730Z,178.92
2022-10-13T08:28:18.384Z,178.92
2022-10-13T08:29:20.826Z,178.36
2022-10-13T08:29:48.777Z,178.36
2022-10-13T08:30:33.644Z,178.36
2022-10-13T08:31:18.643Z,178.36
2022-10-13T08:32:03.657Z,178.36
2022-10-13T08:32:48.696Z,178.36
2022-10-13T08:33:33.651Z,179.07
2022-10-13T08:34:18.896Z,179.56
2022-10-13T08:35:04.444Z,179.56
2022-10-13T08:35:48.680Z,179.07
2022-10-13T08:36:33.873Z,179.49
2022-10-13T08:37:18.950Z,179.49
2022-10-13T08:38:04.191Z,179.31
2022-10-13T08:38:49.048Z,179.31
2022-10-13T08:39:33.924Z,179.31
2022-10-13T08:40:19.055Z,179.19
2022-10-13T08:41:04.459Z,179.19
2022-10-13T08:41:49.367Z,179.19
2022-10-13T08:42:34.331Z,179.19
2022-10-13T08:43:19.444Z,179.19
2022-10-13T08:44:47.627Z,179.19
2022-10-13T08:45:21.845Z,179.19
2022-10-13T08:45:41.332Z,179.19
2022-10-13T08:46:19.612Z,178.92
2022-10-13T08:47:04.770Z,178.76
2022-10-13T08:47:49.521Z,178.76
2022-10-13T08:48:35.128Z,178.92
2022-10-13T08:49:19.392Z,178.76
2022-10-13T08:50:05.059Z,178.76
2022-10-13T08:50:49.846Z,178.76
2022-10-13T08:51:34.907Z,178.76
2022-10-13T08:52:20.309Z,178.76
2022-10-13T08:53:05.120Z,178.92
2022-10-13T08:53:50.173Z,178.92
2022-10-13T08:54:35.333Z,178.92
2022-10-13T08:55:20.322Z,178.92
2022-10-13T08:56:05.447Z,178.92
2022-10-13T08:56:50.048Z,179.07
2022-10-13T08:57:35.312Z,179.07
2022-10-13T08:58:20.582Z,179.07
2022-10-13T08:59:05.772Z,179.07
2022-10-13T08:59:50.730Z,179.07
2022-10-13T09:00:35.349Z,179.07
2022-10-13T09:01:20.653Z,178.92
2022-10-13T09:02:05.849Z,178.92
2022-10-13T09:02:50.848Z,178.92
2022-10-13T09:03:36.109Z,177.24
2022-10-13T09:04:21.061Z,178.36
2022-10-13T09:05:06.018Z,178.76
2022-10-13T09:05:51.724Z,178.76
2022-10-13T09:06:36.162Z,177.87
2022-10-13T09:07:21.518Z,177.57
2022-10-13T09:08:06.345Z,178.13
2022-10-13T09:08:51.195Z,177.87
2022-10-13T09:09:36.664Z,177.57
2022-10-13T09:10:21.438Z,177.57
2022-10-13T09:11:06.686Z,177.87
2022-10-13T09:11:51.319Z,177.87
2022-10-13T09:12:36.384Z,177.57
2022-10-13T09:13:21.744Z,177.24
2022-10-13T09:14:07.051Z,176.01
2022-10-13T09:14:51.653Z,176.01
2022-10-13T09:15:36.807Z,176.01
2022-10-13T09:16:21.985Z,176.01
2022-10-13T09:17:07.397Z,176.01
2022-10-13T09:17:52.457Z,176.46
2022-10-13T09:18:37.139Z,176.46
2022-10-13T09:19:21.902Z,176.01
2022-10-13T09:20:07.357Z,176.01
2022-10-13T09:20:51.994Z,176.01
2022-10-13T09:21:37.154Z,176.01
2022-10-13T09:22:22.691Z,176.01
2022-10-13T09:23:07.297Z,176.01